Time;durP1;ratioP1;P1;durP2;ratioP2;P2;SDS_P1;SDS_P2;PMS_P1;PMS_P2;Temp;Humidity;BMP_temperature;BMP_pressure;BME280_temperature;BME280_humidity;BME280_pressure;Samples;Min_cycle;Max_cycle;Signal;HPM_P1;HPM_P2
2023/07/04 00:01:05;;;;;;;12.57;6.93;;;15.70;99.90;;;;;;5112987;28;20069;-83
2023/07/04 00:03:31;;;;;;;11.68;7.45;;;15.60;99.90;;;;;;5123924;28;20062;-83
2023/07/04 00:05:58;;;;;;;12.70;7.82;;;15.50;99.90;;;;;;5124020;28;20030;-83
2023/07/04 00:08:26;;;;;;;11.77;6.88;;;15.50;99.90;;;;;;5124042;28;20024;-82
2023/07/04 00:10:56;;;;;;;10.18;7.00;;;15.50;99.90;;;;;;5122218;28;20027;-83
2023/07/04 00:13:23;;;;;;;12.38;7.32;;;15.50;99.90;;;;;;5111988;28;20034;-83
2023/07/04 00:15:52;;;;;;;10.63;6.55;;;15.60;99.90;;;;;;5102358;28;20070;-83
2023/07/04 00:18:22;;;;;;;14.93;7.85;;;15.60;99.90;;;;;;5101140;28;20028;-83
2023/07/04 00:20:55;;;;;;;11.57;7.50;;;15.60;99.90;;;;;;5101314;28;20017;-83
2023/07/04 00:23:27;;;;;;;10.40;6.80;;;15.60;99.90;;;;;;5085097;28;20033;-83
2023/07/04 00:25:53;;;;;;;12.57;7.50;;;15.70;99.90;;;;;;5102682;28;20028;-83
2023/07/04 00:28:21;;;;;;;11.27;7.03;;;15.60;99.90;;;;;;5083952;28;20035;-83
2023/07/04 00:30:52;;;;;;;12.18;7.80;;;15.50;99.90;;;;;;5100834;28;20039;-83
2023/07/04 00:33:22;;;;;;;12.60;7.30;;;15.50;99.90;;;;;;5109938;28;20115;-83
2023/07/04 00:35:48;;;;;;;13.23;7.60;;;15.50;99.90;;;;;;5122335;28;20032;-82
2023/07/04 00:38:15;;;;;;;10.18;6.68;;;15.50;99.90;;;;;;5104727;28;20024;-83
2023/07/04 00:40:41;;;;;;;13.50;7.60;;;15.40;99.90;;;;;;5117011;28;20031;-83
2023/07/04 00:43:12;;;;;;;9.15;6.10;;;15.30;99.90;;;;;;5101232;28;20024;-83
2023/07/04 00:45:42;;;;;;;;;;;15.20;99.90;;;;;;5107844;28;20023;-83
2023/07/04 00:48:11;;;;;;;13.80;7.85;;;15.20;99.90;;;;;;5118426;28;20380;-82
2023/07/04 00:50:43;;;;;;;12.50;7.00;;;15.10;99.90;;;;;;5101163;28;20055;-82
2023/07/04 00:53:10;;;;;;;14.63;7.63;;;15.10;99.90;;;;;;5111149;28;20028;-83
2023/07/04 00:55:39;;;;;;;11.57;7.20;;;15.20;99.90;;;;;;5098945;28;20032;-83
2023/07/04 00:58:05;;;;;;;12.27;7.93;;;15.20;99.90;;;;;;5116363;28;20059;-82
2023/07/04 01:00:32;;;;;;;10.45;6.97;;;15.30;99.90;;;;;;5119287;28;20032;-83
2023/07/04 01:03:05;;;;;;;12.85;7.00;;;15.30;99.90;;;;;;5117709;28;20019;-82
2023/07/04 01:05:49;;;;;;;14.18;7.30;;;15.30;99.90;;;;;;5099166;28;20119;-82
2023/07/04 01:08:38;;;;;;;12.98;6.80;;;15.30;99.90;;;;;;5100522;28;20032;-83
2023/07/04 01:11:15;;;;;;;11.18;6.80;;;15.40;99.90;;;;;;5098597;28;20020;-83
2023/07/04 01:13:45;;;;;;;9.00;6.25;;;15.40;99.90;;;;;;5108528;28;20038;-83
2023/07/04 01:16:17;;;;;;;12.10;7.63;;;15.40;99.90;;;;;;5104745;28;20028;-83
2023/07/04 01:18:46;;;;;;;14.05;6.85;;;15.40;99.90;;;;;;5099519;28;20035;-83
2023/07/04 01:21:15;;;;;;;11.77;7.07;;;15.40;99.90;;;;;;5097571;28;20024;-83
2023/07/04 01:23:59;;;;;;;10.57;6.85;;;15.30;99.90;;;;;;5099893;28;20385;-82
2023/07/04 01:26:30;;;;;;;10.23;6.65;;;15.30;99.90;;;;;;5099570;28;20534;-83
2023/07/04 01:28:56;;;;;;;11.70;6.95;;;15.40;99.90;;;;;;5098881;28;20020;-83
2023/07/04 01:31:27;;;;;;;11.80;7.07;;;15.40;99.90;;;;;;5099531;28;20501;-82
2023/07/04 01:33:54;;;;;;;14.00;7.55;;;15.40;99.90;;;;;;5110244;28;20443;-82
2023/07/04 01:36:24;;;;;;;11.35;7.13;;;15.30;99.90;;;;;;5097493;28;20110;-83
2023/07/04 01:38:49;;;;;;;15.38;7.07;;;15.20;99.90;;;;;;5098784;28;20019;-82
2023/07/04 01:41:15;;;;;;;12.32;7.47;;;15.10;99.90;;;;;;5098689;28;20393;-83
2023/07/04 01:43:44;;;;;;;13.32;7.53;;;15.10;99.90;;;;;;5097795;28;20440;-82
2023/07/04 01:46:10;;;;;;;11.88;7.35;;;15.10;99.90;;;;;;5098180;28;20036;-82
2023/07/04 01:48:37;;;;;;;10.95;7.15;;;15.10;99.90;;;;;;5080359;28;20039;-83
2023/07/04 01:51:03;;;;;;;13.55;7.72;;;15.10;99.90;;;;;;5097701;28;20028;-82
2023/07/04 01:53:29;;;;;;;12.23;7.43;;;15.20;99.90;;;;;;5097487;28;20032;-83
2023/07/04 01:55:55;;;;;;;12.90;7.70;;;15.20;99.90;;;;;;5080644;28;20050;-82
2023/07/04 01:58:21;;;;;;;10.32;6.75;;;15.20;99.90;;;;;;5097320;28;20021;-82
2023/07/04 02:00:46;;;;;;;10.13;6.90;;;15.20;99.90;;;;;;5096750;28;20482;-83
2023/07/04 02:03:12;;;;;;;12.73;7.35;;;15.20;99.90;;;;;;5087911;28;20042;-83
2023/07/04 02:05:38;;;;;;;11.25;7.45;;;15.20;99.90;;;;;;5117872;28;20040;-83
2023/07/04 02:08:04;;;;;;;10.95;7.00;;;15.10;99.90;;;;;;5117793;28;20027;-82
2023/07/04 02:10:29;;;;;;;12.98;7.13;;;15.10;99.90;;;;;;5118351;28;20035;-83
2023/07/04 02:12:55;;;;;;;11.73;7.72;;;15.10;99.90;;;;;;5119072;28;20473;-83
2023/07/04 02:15:23;;;;;;;12.20;7.95;;;15.00;99.90;;;;;;5098885;28;20409;-82
2023/07/04 02:17:49;;;;;;;12.20;8.82;;;15.10;99.90;;;;;;5097544;28;20021;-82
2023/07/04 02:20:16;;;;;;;15.45;9.10;;;15.10;99.90;;;;;;5112869;28;20027;-83
2023/07/04 02:22:43;;;;;;;17.80;10.10;;;15.10;99.90;;;;;;5104713;28;20025;-82
2023/07/04 02:25:10;;;;;;;14.68;10.10;;;15.00;99.90;;;;;;5105883;28;20027;-83
2023/07/04 02:27:36;;;;;;;18.30;11.50;;;15.00;99.90;;;;;;5096933;28;20499;-82
2023/07/04 02:30:04;;;;;;;15.10;10.02;;;14.90;99.90;;;;;;5106231;28;20027;-82
2023/07/04 02:32:29;;;;;;;18.17;9.85;;;14.90;99.90;;;;;;5115215;28;20431;-82
2023/07/04 02:34:55;;;;;;;12.90;7.85;;;14.90;99.90;;;;;;5096479;28;20036;-83
2023/07/04 02:37:21;;;;;;;14.30;8.38;;;14.90;99.90;;;;;;5097089;28;20103;-82
2023/07/04 02:39:46;;;;;;;12.65;7.72;;;14.90;99.90;;;;;;5097009;28;20082;-82
2023/07/04 02:42:12;;;;;;;11.45;7.18;;;14.90;99.90;;;;;;5113865;28;20020;-82
2023/07/04 02:44:38;;;;;;;17.73;8.82;;;14.80;99.90;;;;;;5103287;28;20023;-83
2023/07/04 02:47:04;;;;;;;15.70;9.38;;;14.80;99.90;;;;;;5121298;28;20077;-83
2023/07/04 02:49:30;;;;;;;13.27;9.30;;;14.70;99.90;;;;;;5121471;28;20505;-82
2023/07/04 02:51:55;;;;;;;14.07;9.55;;;14.60;99.90;;;;;;5108580;28;20024;-83
2023/07/04 02:54:21;;;;;;;14.60;8.82;;;14.50;99.90;;;;;;5076336;28;20074;-82
2023/07/04 02:56:46;;;;;;;14.07;8.57;;;14.50;99.90;;;;;;5083763;28;20497;-82
2023/07/04 02:59:12;;;;;;;14.55;9.38;;;14.50;99.90;;;;;;5100836;28;20040;-82
2023/07/04 03:01:38;;;;;;;12.38;7.80;;;14.50;99.90;;;;;;5102308;28;20024;-83
2023/07/04 03:04:04;;;;;;;13.55;7.68;;;14.50;99.90;;;;;;5132998;27;20427;-83
2023/07/04 03:06:29;;;;;;;11.80;7.13;;;14.50;99.90;;;;;;5130596;27;20458;-82
2023/07/04 03:08:56;;;;;;;12.02;7.55;;;14.50;99.90;;;;;;5100550;28;20078;-83
2023/07/04 03:11:22;;;;;;;12.60;8.38;;;14.40;99.90;;;;;;5100645;28;20039;-82
2023/07/04 03:13:50;;;;;;;17.10;7.60;;;14.40;99.90;;;;;;5118734;28;20027;-82
2023/07/04 03:16:16;;;;;;;13.60;7.57;;;14.40;99.90;;;;;;5100084;28;20039;-83
2023/07/04 03:18:41;;;;;;;10.23;6.55;;;14.40;99.90;;;;;;5088408;28;20016;-83
2023/07/04 03:21:07;;;;;;;13.00;7.00;;;14.40;99.90;;;;;;5120394;28;20069;-82
2023/07/04 03:23:32;;;;;;;13.75;7.43;;;14.40;99.90;;;;;;5102529;28;20511;-83
2023/07/04 03:25:58;;;;;;;10.02;6.63;;;14.40;99.90;;;;;;5119351;28;20397;-82
2023/07/04 03:28:24;;;;;;;11.63;6.82;;;14.40;99.90;;;;;;5099159;28;20027;-82
2023/07/04 03:30:50;;;;;;;14.45;8.02;;;14.40;99.90;;;;;;5081611;28;20035;-82
2023/07/04 03:33:15;;;;;;;13.52;8.57;;;14.30;99.90;;;;;;5102036;28;20042;-82
2023/07/04 03:35:42;;;;;;;14.75;8.52;;;14.30;99.90;;;;;;5087856;28;20504;-82
2023/07/04 03:38:08;;;;;;;11.10;7.28;;;14.20;99.90;;;;;;5098380;28;20032;-82
2023/07/04 03:40:33;;;;;;;11.10;7.60;;;14.20;99.90;;;;;;5081581;28;20077;-83
2023/07/04 03:42:59;;;;;;;12.75;7.32;;;14.20;99.90;;;;;;5081953;28;20020;-82
2023/07/04 03:45:25;;;;;;;11.00;6.85;;;14.20;99.90;;;;;;5099480;28;20505;-82
2023/07/04 03:47:50;;;;;;;10.32;6.60;;;14.20;99.90;;;;;;5082882;28;20428;-83
2023/07/04 03:50:16;;;;;;;11.82;6.28;;;14.20;99.90;;;;;;5098630;28;20386;-82
2023/07/04 03:52:42;;;;;;;10.80;6.93;;;14.20;99.90;;;;;;5097863;28;20055;-82
2023/07/04 03:55:08;;;;;;;12.88;7.50;;;14.20;99.90;;;;;;5099702;28;20043;-83
2023/07/04 03:57:34;;;;;;;12.52;7.60;;;14.30;99.90;;;;;;5099714;28;20016;-82
2023/07/04 04:00:00;;;;;;;12.05;7.70;;;14.40;99.90;;;;;;5099924;28;20024;-82
2023/07/04 04:02:26;;;;;;;11.55;6.85;;;14.40;99.90;;;;;;5067741;27;20089;-82
2023/07/04 04:04:51;;;;;;;10.18;6.30;;;14.40;99.90;;;;;;5121683;27;20023;-82
2023/07/04 04:07:17;;;;;;;10.93;6.78;;;14.40;99.90;;;;;;5139990;27;20027;-83
2023/07/04 04:09:43;;;;;;;12.60;6.78;;;14.50;99.90;;;;;;5140823;27;20035;-78
2023/07/04 04:12:09;;;;;;;11.15;7.10;;;14.50;99.90;;;;;;5123395;27;20024;-78
2023/07/04 04:14:36;;;;;;;10.73;7.10;;;14.50;99.90;;;;;;5120486;28;20024;-84
2023/07/04 04:17:03;;;;;;;9.52;6.40;;;14.50;99.90;;;;;;5076934;23;20037;-81
2023/07/04 04:19:29;;;;;;;14.18;7.20;;;14.50;99.90;;;;;;5079101;28;20478;-82
2023/07/04 04:21:55;;;;;;;12.40;7.20;;;14.50;99.90;;;;;;5059148;28;20031;-82
2023/07/04 04:24:21;;;;;;;11.30;7.18;;;14.50;99.90;;;;;;5042524;28;20052;-82
2023/07/04 04:26:48;;;;;;;12.05;6.30;;;14.50;99.90;;;;;;5058420;28;20034;-81
2023/07/04 04:29:17;;;;;;;13.43;7.43;;;14.50;99.90;;;;;;5082548;28;20495;-82
2023/07/04 04:31:44;;;;;;;11.32;7.18;;;14.50;99.90;;;;;;5116949;23;20046;-72
2023/07/04 04:34:11;;;;;;;14.15;7.50;;;14.60;99.90;;;;;;5097321;28;20385;-72
2023/07/04 04:36:37;;;;;;;11.93;6.78;;;14.60;99.90;;;;;;5097478;28;20465;-72
2023/07/04 04:39:03;;;;;;;13.73;7.80;;;14.60;99.90;;;;;;5115516;28;20024;-72
2023/07/04 04:41:29;;;;;;;10.55;7.40;;;14.50;99.90;;;;;;5115441;28;20047;-72
2023/07/04 04:43:57;;;;;;;12.02;7.53;;;14.50;99.90;;;;;;5115550;28;20100;-72
2023/07/04 04:46:22;;;;;;;14.82;8.25;;;14.50;99.90;;;;;;5115278;28;20020;-72
2023/07/04 04:48:49;;;;;;;14.07;8.68;;;14.50;99.90;;;;;;5115432;28;20169;-72
2023/07/04 04:51:14;;;;;;;12.80;8.60;;;14.50;99.90;;;;;;5097596;28;20051;-73
2023/07/04 04:53:42;;;;;;;15.18;8.55;;;14.50;99.90;;;;;;5099911;28;20491;-72
2023/07/04 04:56:09;;;;;;;13.75;8.88;;;14.50;99.90;;;;;;5094656;28;20036;-72
2023/07/04 04:58:36;;;;;;;14.20;8.27;;;14.50;99.90;;;;;;5094316;28;20477;-73
2023/07/04 05:01:17;;;;;;;12.23;8.38;;;14.60;99.90;;;;;;5075816;28;20024;-72
2023/07/04 05:03:43;;;;;;;13.05;8.48;;;14.60;99.90;;;;;;5094606;28;20024;-73
2023/07/04 05:06:10;;;;;;;13.30;8.20;;;14.70;99.90;;;;;;5093387;28;20039;-72
2023/07/04 05:08:36;;;;;;;12.60;7.82;;;14.70;99.90;;;;;;5094618;28;20031;-72
2023/07/04 05:11:07;;;;;;;13.65;7.88;;;14.80;99.90;;;;;;5094482;28;20493;-72
2023/07/04 05:13:38;;;;;;;12.63;7.93;;;14.80;99.90;;;;;;5095205;28;20058;-72
2023/07/04 05:16:09;;;;;;;12.23;7.65;;;14.90;99.90;;;;;;5094450;28;20034;-72
2023/07/04 05:18:37;;;;;;;11.50;7.00;;;14.90;99.90;;;;;;5094472;28;20016;-72
2023/07/04 05:21:10;;;;;;;11.10;7.43;;;14.90;99.90;;;;;;5094453;28;20024;-72
2023/07/04 05:23:38;;;;;;;12.25;7.15;;;15.00;99.90;;;;;;5094765;28;20055;-72
2023/07/04 05:26:06;;;;;;;13.65;7.90;;;15.00;99.90;;;;;;5094402;28;20032;-72
2023/07/04 05:28:33;;;;;;;10.98;7.32;;;15.00;99.90;;;;;;5094422;28;20116;-72
2023/07/04 05:31:00;;;;;;;11.88;7.70;;;15.10;99.90;;;;;;5094377;28;20050;-73
2023/07/04 05:33:27;;;;;;;12.50;8.05;;;15.10;99.90;;;;;;5094183;28;20039;-73
2023/07/04 05:36:13;;;;;;;12.23;7.57;;;15.10;99.90;;;;;;5094127;28;20036;-73
2023/07/04 05:38:39;;;;;;;11.50;7.80;;;15.20;99.90;;;;;;5093839;28;20497;-72
2023/07/04 05:41:13;;;;;;;11.73;7.60;;;15.20;99.90;;;;;;5093986;28;20043;-73
2023/07/04 05:43:40;;;;;;;12.27;7.80;;;15.30;99.90;;;;;;5094215;28;20028;-73
2023/07/04 05:46:07;;;;;;;12.52;8.07;;;15.30;99.90;;;;;;5093946;28;20025;-72
2023/07/04 05:48:33;;;;;;;14.85;9.32;;;15.40;99.90;;;;;;5093881;28;20082;-73
2023/07/04 05:51:04;;;;;;;16.23;9.70;;;15.50;99.90;;;;;;5075701;28;20046;-72
2023/07/04 05:53:32;;;;;;;14.90;8.65;;;15.60;99.90;;;;;;5075639;28;20028;-73
2023/07/04 05:56:13;;;;;;;13.40;8.27;;;15.60;99.90;;;;;;5093632;28;20067;-72
2023/07/04 05:58:44;;;;;;;11.30;7.53;;;15.60;99.90;;;;;;5094063;28;20031;-73
2023/07/04 06:01:22;;;;;;;12.85;8.13;;;15.70;99.90;;;;;;5094389;28;20030;-73
2023/07/04 06:03:48;;;;;;;10.65;7.50;;;15.80;99.90;;;;;;5093534;28;20074;-73
2023/07/04 06:06:19;;;;;;;16.10;8.45;;;15.90;99.90;;;;;;5093547;28;20031;-72
2023/07/04 06:08:45;;;;;;;12.17;8.50;;;16.00;99.90;;;;;;5094181;28;20024;-72
2023/07/04 06:11:10;;;;;;;11.80;7.65;;;16.00;99.90;;;;;;5075425;28;20028;-72
2023/07/04 06:13:36;;;;;;;13.68;8.73;;;16.00;99.90;;;;;;5093473;28;20028;-72
2023/07/04 06:16:06;;;;;;;15.27;8.43;;;16.10;99.90;;;;;;5074815;28;20063;-73
2023/07/04 06:18:31;;;;;;;17.63;9.60;;;16.10;99.90;;;;;;5093484;28;20044;-73
2023/07/04 06:21:08;;;;;;;16.95;8.52;;;16.10;99.90;;;;;;5075413;28;20047;-73
2023/07/04 06:23:34;;;;;;;13.95;8.70;;;16.10;99.90;;;;;;5093359;28;20024;-72
2023/07/04 06:26:00;;;;;;;13.50;8.40;;;16.10;99.90;;;;;;5075512;28;20367;-73
2023/07/04 06:28:25;;;;;;;15.25;8.15;;;16.20;99.90;;;;;;5075465;28;20034;-73
2023/07/04 06:30:51;;;;;;;13.60;9.00;;;16.20;99.90;;;;;;5093240;28;20118;-73
2023/07/04 06:33:17;;;;;;;17.70;9.00;;;16.20;99.90;;;;;;5093232;28;20073;-73
2023/07/04 06:35:43;;;;;;;14.52;8.65;;;16.30;99.90;;;;;;5093288;28;20474;-72
2023/07/04 06:38:10;;;;;;;16.92;9.20;;;16.30;99.90;;;;;;5093582;28;20032;-73
2023/07/04 06:40:36;;;;;;;12.85;7.68;;;16.40;99.90;;;;;;5093214;28;20466;-73
2023/07/04 06:43:03;;;;;;;16.42;9.18;;;16.50;99.90;;;;;;5093139;28;20028;-73
2023/07/04 06:45:31;;;;;;;16.98;9.15;;;16.70;99.90;;;;;;5075141;28;20028;-73
2023/07/04 06:47:57;;;;;;;14.85;7.95;;;16.70;99.90;;;;;;5093188;28;20035;-72
2023/07/04 06:50:22;;;;;;;15.13;8.98;;;16.90;99.90;;;;;;5093424;28;20036;-72
2023/07/04 06:52:48;;;;;;;14.68;8.68;;;17.00;99.90;;;;;;5093287;28;20068;-72
2023/07/04 06:55:14;;;;;;;14.27;9.52;;;17.10;99.90;;;;;;5093091;28;20034;-72
2023/07/04 06:57:40;;;;;;;16.50;8.55;;;17.20;99.90;;;;;;5093361;28;20020;-73
2023/07/04 07:00:06;;;;;;;16.77;9.10;;;17.30;99.90;;;;;;5093102;28;20028;-72
2023/07/04 07:02:32;;;;;;;15.82;9.60;;;17.50;99.90;;;;;;5092991;28;20028;-72
2023/07/04 07:04:58;;;;;;;20.35;9.25;;;17.60;99.90;;;;;;5093041;28;20028;-72
2023/07/04 07:07:25;;;;;;;17.10;9.65;;;17.60;99.90;;;;;;5093246;28;20040;-73
2023/07/04 07:09:50;;;;;;;18.23;9.73;;;17.70;99.90;;;;;;5092960;28;20028;-72
2023/07/04 07:12:16;;;;;;;16.08;10.18;;;17.70;99.90;;;;;;5093435;28;20032;-73
2023/07/04 07:14:41;;;;;;;16.23;9.90;;;17.80;99.90;;;;;;5093433;28;20527;-72
2023/07/04 07:17:08;;;;;;;15.13;9.23;;;17.90;99.90;;;;;;5093481;28;20533;-73
2023/07/04 07:19:34;;;;;;;14.23;8.18;;;18.00;99.90;;;;;;5093155;28;20024;-73
2023/07/04 07:22:00;;;;;;;16.05;8.32;;;18.10;99.90;;;;;;5074696;28;20028;-72
2023/07/04 07:24:28;;;;;;;13.90;8.38;;;18.20;99.90;;;;;;5092879;28;20032;-73
2023/07/04 07:26:55;;;;;;;17.10;9.55;;;18.30;99.90;;;;;;5093539;28;20037;-73
2023/07/04 07:29:20;;;;;;;14.60;8.02;;;18.40;99.90;;;;;;5096504;28;20107;-73
2023/07/04 07:31:47;;;;;;;16.00;8.48;;;18.60;99.90;;;;;;5096276;28;20166;-73
2023/07/04 07:34:13;;;;;;;12.38;8.02;;;18.70;99.90;;;;;;5078171;28;20378;-73
2023/07/04 07:36:41;;;;;;;14.52;8.63;;;18.90;99.90;;;;;;5096282;28;20038;-73
2023/07/04 07:39:10;;;;;;;16.65;8.68;;;19.20;99.90;;;;;;5096359;28;20099;-73
2023/07/04 07:41:40;;;;;;;11.43;7.03;;;19.40;99.90;;;;;;5096836;28;20099;-73
2023/07/04 07:44:07;;;;;;;12.10;7.63;;;19.50;99.90;;;;;;5077978;28;20016;-73
2023/07/04 07:46:32;;;;;;;15.38;7.00;;;19.70;99.90;;;;;;5096275;28;20028;-73
2023/07/04 07:48:59;;;;;;;10.05;6.38;;;19.80;99.90;;;;;;5096131;28;20371;-73
2023/07/04 07:51:25;;;;;;;13.27;6.70;;;19.90;99.90;;;;;;5096230;28;20111;-72
2023/07/04 07:53:55;;;;;;;10.50;5.45;;;20.10;99.90;;;;;;5096120;28;20032;-73
2023/07/04 07:56:23;;;;;;;10.13;5.45;;;20.20;99.90;;;;;;5096275;28;20055;-73
2023/07/04 07:58:49;;;;;;;11.55;6.00;;;20.40;99.90;;;;;;5096276;28;20077;-72
2023/07/04 08:01:24;;;;;;;10.77;5.18;;;20.60;99.90;;;;;;5095928;28;20025;-73
2023/07/04 08:03:50;;;;;;;7.60;4.57;;;20.80;99.90;;;;;;5096131;28;20025;-73
2023/07/04 08:06:23;;;;;;;10.95;5.15;;;21.00;99.90;;;;;;5095837;28;20062;-73
2023/07/04 08:08:50;;;;;;;8.52;4.85;;;21.00;99.90;;;;;;5095700;28;20122;-73
2023/07/04 08:11:16;;;;;;;9.05;4.18;;;21.10;99.90;;;;;;5077982;28;20028;-73
2023/07/04 08:13:42;;;;;;;8.88;4.85;;;21.20;99.90;;;;;;5095968;28;20039;-73
2023/07/04 08:16:07;;;;;;;6.82;4.43;;;21.40;99.90;;;;;;5095586;28;20063;-73
2023/07/04 08:18:33;;;;;;;10.25;4.50;;;21.50;99.90;;;;;;5095626;28;20481;-73
2023/07/04 08:21:03;;;;;;;8.90;3.83;;;21.60;99.90;;;;;;5095998;28;20039;-73
2023/07/04 08:23:30;;;;;;;11.05;4.03;;;21.70;99.90;;;;;;5095848;28;20043;-73
2023/07/04 08:25:56;;;;;;;8.27;4.10;;;21.60;99.90;;;;;;5095570;28;20035;-73
2023/07/04 08:28:22;;;;;;;6.90;3.97;;;21.60;99.90;;;;;;5095589;28;20035;-73
2023/07/04 08:30:49;;;;;;;7.35;4.00;;;21.60;99.90;;;;;;5077071;28;20035;-73
2023/07/04 08:33:16;;;;;;;6.25;3.60;;;21.70;99.90;;;;;;5095271;28;20028;-73
2023/07/04 08:36:05;;;;;;;5.57;3.25;;;21.80;99.90;;;;;;5095563;28;20051;-73
2023/07/04 08:38:31;;;;;;;6.47;3.85;;;21.80;99.90;;;;;;5082497;28;20036;-73
2023/07/04 08:40:57;;;;;;;9.82;4.25;;;21.60;99.90;;;;;;5095218;28;20031;-73
2023/07/04 08:43:36;;;;;;;7.57;3.88;;;21.50;99.90;;;;;;5095002;28;20063;-73
2023/07/04 08:46:06;;;;;;;8.45;3.80;;;21.30;99.90;;;;;;5095433;28;20024;-73
2023/07/04 08:48:33;;;;;;;8.05;3.78;;;21.30;99.90;;;;;;5095302;28;20036;-73
2023/07/04 08:51:01;;;;;;;7.47;3.88;;;21.20;99.90;;;;;;5095129;28;20132;-73
2023/07/04 08:53:28;;;;;;;11.00;4.07;;;21.20;99.90;;;;;;5095135;28;20063;-73
2023/07/04 08:56:13;;;;;;;9.55;4.10;;;21.10;99.90;;;;;;5094757;28;20027;-73
2023/07/04 08:59:34;;;;;;;8.13;4.15;;;21.20;99.90;;;;;;5095110;28;20022;-73
2023/07/04 09:02:29;;;;;;;9.60;4.45;;;21.30;99.90;;;;;;5091538;28;20024;-73
2023/07/04 09:05:32;;;;;;;8.27;4.15;;;21.60;99.90;;;;;;5094661;28;20027;-73
2023/07/04 09:08:09;;;;;;;8.98;4.30;;;21.90;99.90;;;;;;5094862;28;20028;-73
2023/07/04 09:10:45;;;;;;;8.52;3.95;;;22.10;99.90;;;;;;5094598;28;20027;-73
2023/07/04 09:13:16;;;;;;;9.98;3.95;;;22.10;99.90;;;;;;5094725;28;20485;-73
2023/07/04 09:15:47;;;;;;;8.93;4.07;;;22.10;99.90;;;;;;5095004;28;20016;-73
2023/07/04 09:18:18;;;;;;;;;;;22.00;99.90;;;;;;5094886;28;20035;-73
2023/07/04 09:20:50;;;;;;;9.05;4.53;;;21.90;99.90;;;;;;5094445;28;19905;-73
2023/07/04 09:23:22;;;;;;;7.28;3.70;;;21.90;99.90;;;;;;5094507;28;20027;-73
2023/07/04 09:25:48;;;;;;;7.28;3.58;;;22.00;99.90;;;;;;5076173;28;20036;-73
2023/07/04 09:28:13;;;;;;;7.30;4.13;;;22.10;99.90;;;;;;5094178;28;20175;-73
2023/07/04 09:30:39;;;;;;;6.95;3.70;;;22.20;99.90;;;;;;5094297;28;20127;-73
2023/07/04 09:33:05;;;;;;;7.05;3.95;;;22.40;99.90;;;;;;5075865;28;20034;-72
2023/07/04 09:35:31;;;;;;;7.15;4.07;;;22.30;99.90;;;;;;5075910;28;20028;-73
2023/07/04 09:38:02;;;;;;;5.85;3.55;;;22.30;99.90;;;;;;5094036;28;20024;-72
2023/07/04 09:41:02;;;;;;;6.97;4.20;;;22.10;99.90;;;;;;5094036;28;20107;-73
2023/07/04 09:43:33;;;;;;;6.00;3.65;;;22.00;99.90;;;;;;5012018;28;20068;-73
2023/07/04 09:46:24;;;;;;;7.50;4.45;;;22.10;99.90;;;;;;5079791;28;20044;-73
2023/07/04 09:48:50;;;;;;;7.10;4.43;;;22.50;99.90;;;;;;5075797;28;20085;-73
2023/07/04 09:51:22;;;;;;;9.38;4.53;;;22.60;99.90;;;;;;5093203;28;20430;-73
2023/07/04 09:53:48;;;;;;;8.02;3.97;;;22.60;99.90;;;;;;5093941;28;20039;-73
2023/07/04 09:56:25;;;;;;;8.55;4.28;;;22.50;99.90;;;;;;5093669;28;20032;-73
2023/07/04 09:59:36;;;;;;;8.35;4.20;;;22.30;99.90;;;;;;5075657;28;20020;-73
2023/07/04 10:02:18;;;;;;;7.90;4.28;;;22.20;99.90;;;;;;5089591;28;20032;-73
2023/07/04 10:04:46;;;;;;;8.85;4.30;;;22.20;99.90;;;;;;5093637;28;20027;-73
2023/07/04 10:07:15;;;;;;;10.52;3.92;;;22.20;99.90;;;;;;5094410;28;20032;-75
2023/07/04 10:09:57;;;;;;;6.63;3.85;;;22.30;99.90;;;;;;5093633;28;20031;-75
2023/07/04 10:12:25;;;;;;;9.40;4.50;;;22.40;99.90;;;;;;5093718;28;20027;-74
2023/07/04 10:14:54;;;;;;;6.20;3.50;;;22.60;99.50;;;;;;5093689;28;20024;-75
2023/07/04 10:17:29;;;;;;;7.70;3.67;;;22.60;99.90;;;;;;5093458;28;20408;-75
2023/07/04 10:20:08;;;;;;;6.65;3.70;;;22.90;99.90;;;;;;5075663;28;20085;-74
2023/07/04 10:22:41;;;;;;;8.20;4.00;;;22.90;98.90;;;;;;5093413;28;20017;-74
2023/07/04 10:25:17;;;;;;;7.55;3.97;;;23.10;99.90;;;;;;5093738;28;20020;-75
2023/07/04 10:27:47;;;;;;;8.35;3.90;;;23.40;97.90;;;;;;5093424;28;20054;-74
2023/07/04 10:30:20;;;;;;;7.00;3.70;;;23.50;98.10;;;;;;5093295;28;20048;-75
2023/07/04 10:32:55;;;;;;;6.03;3.47;;;23.60;97.50;;;;;;5093831;28;20020;-74
2023/07/04 10:35:25;;;;;;;6.82;3.78;;;23.80;97.00;;;;;;5093552;28;20082;-74
2023/07/04 10:38:01;;;;;;;7.85;3.58;;;23.90;96.00;;;;;;5093634;28;20020;-74
2023/07/04 10:40:28;;;;;;;6.07;3.85;;;24.10;94.00;;;;;;5093509;28;20036;-75
2023/07/04 10:43:19;;;;;;;7.28;3.88;;;24.20;95.30;;;;;;5075606;28;20347;-74
2023/07/04 10:45:47;;;;;;;8.00;4.45;;;24.30;96.10;;;;;;5093114;28;20024;-74
2023/07/04 10:48:16;;;;;;;8.48;3.88;;;24.50;95.30;;;;;;5093168;28;20028;-75
2023/07/04 10:50:58;;;;;;;6.90;3.75;;;24.70;95.70;;;;;;5093698;28;20035;-75
2023/07/04 10:53:24;;;;;;;8.05;3.63;;;24.70;95.00;;;;;;5093343;28;20031;-74
2023/07/04 10:56:03;;;;;;;7.90;3.83;;;24.90;95.10;;;;;;5093051;28;20393;-75
2023/07/04 10:58:34;;;;;;;8.52;3.85;;;25.00;93.90;;;;;;5093088;28;20056;-75
2023/07/04 11:01:07;;;;;;;5.95;3.95;;;25.10;94.90;;;;;;5093923;28;20016;-75
2023/07/04 11:03:38;;;;;;;6.25;3.88;;;25.10;93.40;;;;;;5096936;28;20012;-74
2023/07/04 11:06:10;;;;;;;6.85;3.90;;;25.20;95.20;;;;;;5096959;28;20024;-75
2023/07/04 11:08:38;;;;;;;6.05;4.03;;;25.20;93.10;;;;;;5078816;28;20027;-75
2023/07/04 11:11:10;;;;;;;7.93;4.35;;;25.20;93.80;;;;;;5096924;28;20024;-74
2023/07/04 11:13:45;;;;;;;7.63;3.83;;;25.20;93.50;;;;;;5096962;28;20161;-74
2023/07/04 11:16:12;;;;;;;6.35;3.60;;;25.10;93.20;;;;;;5097009;28;20020;-74
2023/07/04 11:18:39;;;;;;;6.93;3.88;;;25.20;93.60;;;;;;5097264;28;20028;-74
2023/07/04 11:21:08;;;;;;;5.75;3.47;;;25.30;93.90;;;;;;5096973;28;20016;-74
2023/07/04 11:23:53;;;;;;;6.28;3.30;;;25.50;93.40;;;;;;5096571;28;20012;-74
2023/07/04 11:26:40;;;;;;;7.82;3.72;;;25.60;92.40;;;;;;5096925;28;20047;-74
2023/07/04 11:29:14;;;;;;;6.45;3.55;;;25.60;92.60;;;;;;5096345;28;20477;-74
2023/07/04 11:32:00;;;;;;;8.20;3.90;;;25.70;92.70;;;;;;5096427;28;20036;-75
2023/07/04 11:34:42;;;;;;;7.18;3.45;;;25.80;92.40;;;;;;5082324;28;20508;-74
2023/07/04 11:37:09;;;;;;;7.97;3.97;;;25.80;92.10;;;;;;5096838;28;20077;-74
2023/07/04 11:39:37;;;;;;;6.55;3.53;;;25.80;91.30;;;;;;5096346;28;20027;-75
2023/07/04 11:42:27;;;;;;;5.13;3.20;;;25.80;92.10;;;;;;5096212;28;20085;-74
2023/07/04 11:45:01;;;;;;;7.85;3.70;;;25.80;90.70;;;;;;5096272;28;20039;-74
2023/07/04 11:47:43;;;;;;;6.50;3.40;;;25.90;90.10;;;;;;5096494;28;20020;-74
2023/07/04 11:50:19;;;;;;;6.05;3.55;;;25.80;87.40;;;;;;5096414;28;20048;-74
2023/07/04 11:52:53;;;;;;;4.75;2.88;;;25.80;88.10;;;;;;5096016;28;20081;-73
2023/07/04 11:55:24;;;;;;;5.25;2.95;;;25.70;88.10;;;;;;5096351;28;20551;-74
2023/07/04 11:58:04;;;;;;;6.05;3.08;;;25.70;86.30;;;;;;5096469;28;20036;-74
2023/07/04 12:00:30;;;;;;;7.18;3.03;;;25.70;83.80;;;;;;5096795;28;20027;-73
2023/07/04 12:02:56;;;;;;;4.55;3.00;;;25.70;86.40;;;;;;5077755;28;20024;-74
2023/07/04 12:05:33;;;;;;;4.50;3.08;;;25.70;86.30;;;;;;5095932;28;20456;-73
2023/07/04 12:08:07;;;;;;;4.22;2.72;;;25.80;90.10;;;;;;5077634;28;20124;-74
2023/07/04 12:10:35;;;;;;;6.00;2.90;;;25.80;87.20;;;;;;5095760;28;20381;-73
2023/07/04 12:13:06;;;;;;;5.03;3.00;;;25.70;85.00;;;;;;5094775;28;20440;-74
2023/07/04 12:15:33;;;;;;;5.10;2.72;;;25.70;86.60;;;;;;5095546;28;20024;-73
2023/07/04 12:18:00;;;;;;;6.15;2.90;;;25.70;85.50;;;;;;5095633;28;20111;-73
2023/07/04 12:20:28;;;;;;;4.97;3.13;;;25.60;85.70;;;;;;5102300;27;20058;-73
2023/07/04 12:22:57;;;;;;;6.63;2.92;;;25.40;89.20;;;;;;5105866;27;20042;-72
2023/07/04 12:25:28;;;;;;;7.13;2.75;;;25.20;88.40;;;;;;5099340;28;20070;-71
2023/07/04 12:28:00;;;;;;;5.45;2.90;;;25.10;88.90;;;;;;5111532;28;20032;-72
2023/07/04 12:30:26;;;;;;;6.43;3.00;;;25.00;90.00;;;;;;5101168;27;20059;-72
2023/07/04 12:32:52;;;;;;;5.78;2.70;;;24.60;90.00;;;;;;5136143;27;20054;-72
2023/07/04 12:35:32;;;;;;;5.10;2.45;;;24.20;91.00;;;;;;5136100;27;20023;-72
2023/07/04 12:37:59;;;;;;;6.03;2.80;;;24.30;91.60;;;;;;5136100;27;20019;-73
2023/07/04 12:40:30;;;;;;;4.90;2.40;;;24.10;90.90;;;;;;5136039;27;20027;-72
2023/07/04 12:43:03;;;;;;;;;;;24.20;90.90;;;;;;5136991;27;20372;-73
2023/07/04 12:45:29;;;;;;;4.93;2.90;;;24.10;91.00;;;;;;5135927;27;19907;-73
2023/07/04 12:48:00;;;;;;;4.90;2.60;;;24.20;91.20;;;;;;5118380;27;20062;-74
2023/07/04 12:50:28;;;;;;;5.97;2.90;;;24.30;92.60;;;;;;5136007;27;20092;-73
2023/07/04 12:52:55;;;;;;;4.18;2.60;;;24.40;93.30;;;;;;5135708;27;20103;-73